sensor_id;sensor_type;location;lat;lon;timestamp;temperature;humidity
9790;DHT22;4934;50.852;8.098;2024-02-21T00:02:19;7.00;2.00
9790;DHT22;4934;50.852;8.098;2024-02-21T00:04:45;7.00;1.00
9790;DHT22;4934;50.852;8.098;2024-02-21T00:07:10;6.90;1.00
9790;DHT22;4934;50.852;8.098;2024-02-21T00:09:36;6.80;19.70
9790;DHT22;4934;50.852;8.098;2024-02-21T00:12:02;6.80;99.90
9790;DHT22;4934;50.852;8.098;2024-02-21T00:14:28;6.80;99.90
9790;DHT22;4934;50.852;8.098;2024-02-21T00:16:54;6.80;99.90
9790;DHT22;4934;50.852;8.098;2024-02-21T00:19:19;6.80;1.00
9790;DHT22;4934;50.852;8.098;2024-02-21T00:21:45;6.90;17.00
9790;DHT22;4934;50.852;8.098;2024-02-21T00:24:10;6.90;35.60
9790;DHT22;4934;50.852;8.098;2024-02-21T00:26:36;6.90;1.00
9790;DHT22;4934;50.852;8.098;2024-02-21T00:29:01;6.80;1.00
9790;DHT22;4934;50.852;8.098;2024-02-21T00:31:27;6.90;99.90
9790;DHT22;4934;50.852;8.098;2024-02-21T00:33:52;7.00;98.30
9790;DHT22;4934;50.852;8.098;2024-02-21T00:36:18;7.00;1.00
9790;DHT22;4934;50.852;8.098;2024-02-21T00:38:43;7.00;1.00
9790;DHT22;4934;50.852;8.098;2024-02-21T00:41:10;6.90;1.00
9790;DHT22;4934;50.852;8.098;2024-02-21T00:43:35;6.90;1.00
9790;DHT22;4934;50.852;8.098;2024-02-21T00:46:01;6.90;1.00
9790;DHT22;4934;50.852;8.098;2024-02-21T00:48:26;7.00;1.00
9790;DHT22;4934;50.852;8.098;2024-02-21T00:50:52;7.10;1.00
9790;DHT22;4934;50.852;8.098;2024-02-21T00:53:18;7.00;1.00
9790;DHT22;4934;50.852;8.098;2024-02-21T00:55:43;7.00;99.90
9790;DHT22;4934;50.852;8.098;2024-02-21T00:58:09;7.00;1.00
9790;DHT22;4934;50.852;8.098;2024-02-21T01:00:36;7.00;20.70
9790;DHT22;4934;50.852;8.098;2024-02-21T01:03:02;7.00;1.00
9790;DHT22;4934;50.852;8.098;2024-02-21T01:05:28;7.00;1.00
9790;DHT22;4934;50.852;8.098;2024-02-21T01:07:54;7.00;10.90
9790;DHT22;4934;50.852;8.098;2024-02-21T01:10:20;6.90;63.80
9790;DHT22;4934;50.852;8.098;2024-02-21T01:12:46;6.90;25.20
9790;DHT22;4934;50.852;8.098;2024-02-21T01:15:11;7.00;1.00
9790;DHT22;4934;50.852;8.098;2024-02-21T01:17:37;7.00;1.00
9790;DHT22;4934;50.852;8.098;2024-02-21T01:20:04;7.00;8.20
9790;DHT22;4934;50.852;8.098;2024-02-21T01:22:31;7.00;86.70
9790;DHT22;4934;50.852;8.098;2024-02-21T01:24:56;6.90;1.00
9790;DHT22;4934;50.852;8.098;2024-02-21T01:27:22;6.90;1.00
9790;DHT22;4934;50.852;8.098;2024-02-21T01:29:47;7.00;99.90
9790;DHT22;4934;50.852;8.098;2024-02-21T01:32:15;6.90;1.00
9790;DHT22;4934;50.852;8.098;2024-02-21T01:34:41;7.00;9.40
9790;DHT22;4934;50.852;8.098;2024-02-21T01:37:06;7.00;19.60
9790;DHT22;4934;50.852;8.098;2024-02-21T01:39:33;6.90;99.90
9790;DHT22;4934;50.852;8.098;2024-02-21T01:41:59;6.90;99.90
9790;DHT22;4934;50.852;8.098;2024-02-21T01:44:25;7.00;99.90
9790;DHT22;4934;50.852;8.098;2024-02-21T01:46:51;7.00;99.90
9790;DHT22;4934;50.852;8.098;2024-02-21T01:49:18;6.90;82.10
9790;DHT22;4934;50.852;8.098;2024-02-21T01:51:44;7.00;99.90
9790;DHT22;4934;50.852;8.098;2024-02-21T01:54:11;6.90;99.90
9790;DHT22;4934;50.852;8.098;2024-02-21T01:56:38;7.00;99.90
9790;DHT22;4934;50.852;8.098;2024-02-21T01:59:04;7.00;99.90
9790;DHT22;4934;50.852;8.098;2024-02-21T02:01:30;7.00;99.90
9790;DHT22;4934;50.852;8.098;2024-02-21T02:03:56;6.90;62.90
9790;DHT22;4934;50.852;8.098;2024-02-21T02:06:22;7.00;99.90
9790;DHT22;4934;50.852;8.098;2024-02-21T02:08:48;6.90;99.90
9790;DHT22;4934;50.852;8.098;2024-02-21T02:11:14;6.90;99.90
9790;DHT22;4934;50.852;8.098;2024-02-21T02:13:40;6.90;99.90
9790;DHT22;4934;50.852;8.098;2024-02-21T02:16:06;6.80;99.90
9790;DHT22;4934;50.852;8.098;2024-02-21T02:18:32;6.80;1.00
9790;DHT22;4934;50.852;8.098;2024-02-21T02:20:58;6.80;99.90
9790;DHT22;4934;50.852;8.098;2024-02-21T02:23:30;6.70;1.00
9790;DHT22;4934;50.852;8.098;2024-02-21T02:25:57;6.80;1.00
9790;DHT22;4934;50.852;8.098;2024-02-21T02:28:22;6.80;93.70
9790;DHT22;4934;50.852;8.098;2024-02-21T02:30:48;6.80;99.90
9790;DHT22;4934;50.852;8.098;2024-02-21T02:33:14;6.80;99.90
9790;DHT22;4934;50.852;8.098;2024-02-21T02:35:40;6.80;99.90
9790;DHT22;4934;50.852;8.098;2024-02-21T02:38:06;6.70;99.90
9790;DHT22;4934;50.852;8.098;2024-02-21T02:40:34;6.80;99.90
9790;DHT22;4934;50.852;8.098;2024-02-21T02:43:00;6.80;99.90
9790;DHT22;4934;50.852;8.098;2024-02-21T02:45:25;6.80;99.90
9790;DHT22;4934;50.852;8.098;2024-02-21T02:47:55;6.80;99.90
9790;DHT22;4934;50.852;8.098;2024-02-21T02:50:23;6.80;1.00
9790;DHT22;4934;50.852;8.098;2024-02-21T02:52:54;6.80;99.90
9790;DHT22;4934;50.852;8.098;2024-02-21T02:55:20;6.70;99.90
9790;DHT22;4934;50.852;8.098;2024-02-21T02:57:46;6.80;99.90
9790;DHT22;4934;50.852;8.098;2024-02-21T03:00:12;6.80;99.90
9790;DHT22;4934;50.852;8.098;2024-02-21T03:02:39;6.70;99.90
9790;DHT22;4934;50.852;8.098;2024-02-21T03:05:12;6.80;99.90
9790;DHT22;4934;50.852;8.098;2024-02-21T03:07:39;6.80;99.90
9790;DHT22;4934;50.852;8.098;2024-02-21T03:10:05;6.70;99.90
9790;DHT22;4934;50.852;8.098;2024-02-21T03:12:30;6.80;1.00
9790;DHT22;4934;50.852;8.098;2024-02-21T03:14:56;6.70;99.90
9790;DHT22;4934;50.852;8.098;2024-02-21T03:17:22;6.70;1.00
9790;DHT22;4934;50.852;8.098;2024-02-21T03:19:48;6.60;99.90
9790;DHT22;4934;50.852;8.098;2024-02-21T03:22:15;6.60;99.90
9790;DHT22;4934;50.852;8.098;2024-02-21T03:24:42;6.70;99.90
9790;DHT22;4934;50.852;8.098;2024-02-21T03:27:07;6.70;99.90
9790;DHT22;4934;50.852;8.098;2024-02-21T03:29:37;6.70;99.90
9790;DHT22;4934;50.852;8.098;2024-02-21T03:32:03;6.70;99.90
9790;DHT22;4934;50.852;8.098;2024-02-21T03:34:29;6.60;1.00
9790;DHT22;4934;50.852;8.098;2024-02-21T03:36:54;6.70;99.90
9790;DHT22;4934;50.852;8.098;2024-02-21T03:39:20;6.70;99.90
9790;DHT22;4934;50.852;8.098;2024-02-21T03:41:47;6.70;99.90
9790;DHT22;4934;50.852;8.098;2024-02-21T03:44:12;6.70;99.90
9790;DHT22;4934;50.852;8.098;2024-02-21T03:46:38;6.70;99.90
9790;DHT22;4934;50.852;8.098;2024-02-21T03:49:03;6.70;99.90
9790;DHT22;4934;50.852;8.098;2024-02-21T03:51:29;6.70;99.90
9790;DHT22;4934;50.852;8.098;2024-02-21T03:53:54;6.80;99.90
9790;DHT22;4934;50.852;8.098;2024-02-21T03:56:20;6.70;99.90
9790;DHT22;4934;50.852;8.098;2024-02-21T03:58:45;6.70;99.90
9790;DHT22;4934;50.852;8.098;2024-02-21T04:01:11;6.70;99.90
9790;DHT22;4934;50.852;8.098;2024-02-21T04:03:37;6.60;1.00
9790;DHT22;4934;50.852;8.098;2024-02-21T04:06:03;6.60;1.00
9790;DHT22;4934;50.852;8.098;2024-02-21T04:08:29;6.60;1.00
9790;DHT22;4934;50.852;8.098;2024-02-21T04:10:54;6.60;1.00
9790;DHT22;4934;50.852;8.098;2024-02-21T04:13:20;6.70;99.90
9790;DHT22;4934;50.852;8.098;2024-02-21T04:16:10;6.60;99.90
9790;DHT22;4934;50.852;8.098;2024-02-21T04:18:36;6.60;99.90
9790;DHT22;4934;50.852;8.098;2024-02-21T04:21:01;6.60;99.90
9790;DHT22;4934;50.852;8.098;2024-02-21T04:23:27;6.50;99.90
9790;DHT22;4934;50.852;8.098;2024-02-21T04:25:53;6.50;99.90
9790;DHT22;4934;50.852;8.098;2024-02-21T04:28:18;6.50;99.90
9790;DHT22;4934;50.852;8.098;2024-02-21T04:30:44;6.50;1.00
9790;DHT22;4934;50.852;8.098;2024-02-21T04:33:09;6.60;99.90
9790;DHT22;4934;50.852;8.098;2024-02-21T04:35:38;6.60;99.90
9790;DHT22;4934;50.852;8.098;2024-02-21T04:38:04;6.50;1.00
9790;DHT22;4934;50.852;8.098;2024-02-21T04:40:35;6.50;99.90
9790;DHT22;4934;50.852;8.098;2024-02-21T04:43:04;6.50;1.00
9790;DHT22;4934;50.852;8.098;2024-02-21T04:45:30;6.50;99.90
9790;DHT22;4934;50.852;8.098;2024-02-21T04:47:56;6.60;99.90
9790;DHT22;4934;50.852;8.098;2024-02-21T04:50:21;6.60;99.90
9790;DHT22;4934;50.852;8.098;2024-02-21T04:52:47;6.60;99.90
9790;DHT22;4934;50.852;8.098;2024-02-21T04:55:12;6.60;99.90
9790;DHT22;4934;50.852;8.098;2024-02-21T04:57:38;6.70;99.90
9790;DHT22;4934;50.852;8.098;2024-02-21T05:00:05;6.60;99.90
9790;DHT22;4934;50.852;8.098;2024-02-21T05:02:30;6.70;99.90
9790;DHT22;4934;50.852;8.098;2024-02-21T05:04:56;6.70;99.90
9790;DHT22;4934;50.852;8.098;2024-02-21T05:07:35;6.70;99.90
9790;DHT22;4934;50.852;8.098;2024-02-21T05:10:01;6.60;99.90
9790;DHT22;4934;50.852;8.098;2024-02-21T05:12:27;6.70;99.90
9790;DHT22;4934;50.852;8.098;2024-02-21T05:14:52;6.70;99.90
9790;DHT22;4934;50.852;8.098;2024-02-21T05:17:18;6.70;99.90
9790;DHT22;4934;50.852;8.098;2024-02-21T05:19:43;6.60;99.90
9790;DHT22;4934;50.852;8.098;2024-02-21T05:22:09;6.60;99.90
9790;DHT22;4934;50.852;8.098;2024-02-21T05:24:34;6.60;99.90
9790;DHT22;4934;50.852;8.098;2024-02-21T05:27:00;6.60;99.90
9790;DHT22;4934;50.852;8.098;2024-02-21T05:29:25;6.60;99.90
9790;DHT22;4934;50.852;8.098;2024-02-21T05:34:17;6.60;99.90
9790;DHT22;4934;50.852;8.098;2024-02-21T05:36:43;6.70;99.90
9790;DHT22;4934;50.852;8.098;2024-02-21T05:39:09;6.70;29.00
9790;DHT22;4934;50.852;8.098;2024-02-21T05:41:34;6.60;98.80
9790;DHT22;4934;50.852;8.098;2024-02-21T05:44:00;6.60;92.20
9790;DHT22;4934;50.852;8.098;2024-02-21T05:46:25;6.60;21.40
9790;DHT22;4934;50.852;8.098;2024-02-21T05:48:51;6.70;5.20
9790;DHT22;4934;50.852;8.098;2024-02-21T05:51:16;6.70;38.80
9790;DHT22;4934;50.852;8.098;2024-02-21T05:53:42;6.60;99.90
9790;DHT22;4934;50.852;8.098;2024-02-21T05:56:11;6.60;99.90
9790;DHT22;4934;50.852;8.098;2024-02-21T05:58:38;6.60;99.90
9790;DHT22;4934;50.852;8.098;2024-02-21T06:01:04;6.60;99.90
9790;DHT22;4934;50.852;8.098;2024-02-21T06:03:30;6.50;99.90
9790;DHT22;4934;50.852;8.098;2024-02-21T06:05:56;6.60;99.90
9790;DHT22;4934;50.852;8.098;2024-02-21T06:08:22;6.50;99.90
9790;DHT22;4934;50.852;8.098;2024-02-21T06:10:48;6.50;99.90
9790;DHT22;4934;50.852;8.098;2024-02-21T06:13:16;6.50;99.90
9790;DHT22;4934;50.852;8.098;2024-02-21T06:15:41;6.50;99.90
9790;DHT22;4934;50.852;8.098;2024-02-21T06:18:07;6.60;99.90
9790;DHT22;4934;50.852;8.098;2024-02-21T06:20:39;6.60;99.90
9790;DHT22;4934;50.852;8.098;2024-02-21T06:23:06;6.50;99.90
9790;DHT22;4934;50.852;8.098;2024-02-21T06:25:32;6.60;99.90
9790;DHT22;4934;50.852;8.098;2024-02-21T06:27:57;6.60;99.90
9790;DHT22;4934;50.852;8.098;2024-02-21T06:30:23;6.60;99.90
9790;DHT22;4934;50.852;8.098;2024-02-21T06:32:48;6.70;99.90
9790;DHT22;4934;50.852;8.098;2024-02-21T06:35:14;6.60;99.90
9790;DHT22;4934;50.852;8.098;2024-02-21T06:37:40;6.60;79.50
9790;DHT22;4934;50.852;8.098;2024-02-21T06:40:06;6.60;99.90
9790;DHT22;4934;50.852;8.098;2024-02-21T06:42:31;6.60;13.30
9790;DHT22;4934;50.852;8.098;2024-02-21T06:44:57;6.50;99.90
9790;DHT22;4934;50.852;8.098;2024-02-21T06:47:23;6.50;99.90
9790;DHT22;4934;50.852;8.098;2024-02-21T06:49:49;6.50;99.90
9790;DHT22;4934;50.852;8.098;2024-02-21T06:52:17;6.50;99.90
9790;DHT22;4934;50.852;8.098;2024-02-21T06:54:48;6.40;99.90
9790;DHT22;4934;50.852;8.098;2024-02-21T06:57:14;6.50;99.90
9790;DHT22;4934;50.852;8.098;2024-02-21T06:59:41;6.50;99.90
9790;DHT22;4934;50.852;8.098;2024-02-21T07:02:07;6.60;99.90
9790;DHT22;4934;50.852;8.098;2024-02-21T07:04:33;6.60;8.00
9790;DHT22;4934;50.852;8.098;2024-02-21T07:06:58;6.70;99.90
9790;DHT22;4934;50.852;8.098;2024-02-21T07:09:24;6.80;22.60
9790;DHT22;4934;50.852;8.098;2024-02-21T07:11:50;6.70;1.00
9790;DHT22;4934;50.852;8.098;2024-02-21T07:14:15;6.70;1.00
9790;DHT22;4934;50.852;8.098;2024-02-21T07:16:41;6.70;1.00
9790;DHT22;4934;50.852;8.098;2024-02-21T07:19:06;6.70;1.00
9790;DHT22;4934;50.852;8.098;2024-02-21T07:21:32;6.70;15.20
9790;DHT22;4934;50.852;8.098;2024-02-21T07:23:58;6.80;1.00
9790;DHT22;4934;50.852;8.098;2024-02-21T07:26:23;6.80;30.70
9790;DHT22;4934;50.852;8.098;2024-02-21T07:28:49;6.90;21.80
9790;DHT22;4934;50.852;8.098;2024-02-21T07:31:15;6.90;1.00
9790;DHT22;4934;50.852;8.098;2024-02-21T07:33:40;7.00;1.00
9790;DHT22;4934;50.852;8.098;2024-02-21T07:36:10;7.00;1.00
9790;DHT22;4934;50.852;8.098;2024-02-21T07:38:36;7.10;1.00
9790;DHT22;4934;50.852;8.098;2024-02-21T07:41:02;7.00;48.50
9790;DHT22;4934;50.852;8.098;2024-02-21T07:43:29;7.10;1.00
9790;DHT22;4934;50.852;8.098;2024-02-21T07:45:55;7.20;1.00
9790;DHT22;4934;50.852;8.098;2024-02-21T07:48:21;7.20;1.00
9790;DHT22;4934;50.852;8.098;2024-02-21T07:50:52;7.20;1.00
9790;DHT22;4934;50.852;8.098;2024-02-21T07:53:19;7.30;1.00
9790;DHT22;4934;50.852;8.098;2024-02-21T07:55:45;7.30;1.00
9790;DHT22;4934;50.852;8.098;2024-02-21T07:58:10;7.40;1.00
9790;DHT22;4934;50.852;8.098;2024-02-21T08:00:36;7.40;1.00
9790;DHT22;4934;50.852;8.098;2024-02-21T08:03:04;7.50;1.00
9790;DHT22;4934;50.852;8.098;2024-02-21T08:05:30;7.40;1.00
9790;DHT22;4934;50.852;8.098;2024-02-21T08:07:55;7.50;1.00
9790;DHT22;4934;50.852;8.098;2024-02-21T08:10:21;7.60;1.00
9790;DHT22;4934;50.852;8.098;2024-02-21T08:12:47;7.70;99.90
9790;DHT22;4934;50.852;8.098;2024-02-21T08:15:12;7.70;99.90
9790;DHT22;4934;50.852;8.098;2024-02-21T08:17:38;7.60;99.90
9790;DHT22;4934;50.852;8.098;2024-02-21T08:20:07;7.70;99.90
9790;DHT22;4934;50.852;8.098;2024-02-21T08:22:33;7.70;99.90
9790;DHT22;4934;50.852;8.098;2024-02-21T08:24:58;7.70;99.90
9790;DHT22;4934;50.852;8.098;2024-02-21T08:27:24;7.70;99.90
9790;DHT22;4934;50.852;8.098;2024-02-21T08:29:50;7.70;99.90
9790;DHT22;4934;50.852;8.098;2024-02-21T08:32:15;7.70;99.90
9790;DHT22;4934;50.852;8.098;2024-02-21T08:34:41;7.60;99.90
9790;DHT22;4934;50.852;8.098;2024-02-21T08:37:07;7.60;1.00
9790;DHT22;4934;50.852;8.098;2024-02-21T08:39:33;7.60;1.00
9790;DHT22;4934;50.852;8.098;2024-02-21T08:41:59;7.60;99.90
9790;DHT22;4934;50.852;8.098;2024-02-21T08:44:24;7.60;99.90
9790;DHT22;4934;50.852;8.098;2024-02-21T08:46:53;7.60;99.90
9790;DHT22;4934;50.852;8.098;2024-02-21T08:49:22;7.60;1.00
9790;DHT22;4934;50.852;8.098;2024-02-21T08:51:47;7.70;99.90
9790;DHT22;4934;50.852;8.098;2024-02-21T08:54:13;7.70;99.90
9790;DHT22;4934;50.852;8.098;2024-02-21T08:56:38;7.70;99.90
9790;DHT22;4934;50.852;8.098;2024-02-21T08:59:04;7.70;99.90
9790;DHT22;4934;50.852;8.098;2024-02-21T09:01:29;7.60;99.90
9790;DHT22;4934;50.852;8.098;2024-02-21T09:03:55;7.60;99.90
9790;DHT22;4934;50.852;8.098;2024-02-21T09:06:22;7.60;99.90
9790;DHT22;4934;50.852;8.098;2024-02-21T09:08:48;7.60;99.90
9790;DHT22;4934;50.852;8.098;2024-02-21T09:11:14;7.60;99.90
9790;DHT22;4934;50.852;8.098;2024-02-21T09:13:40;7.70;99.90
9790;DHT22;4934;50.852;8.098;2024-02-21T09:16:06;7.70;99.90
9790;DHT22;4934;50.852;8.098;2024-02-21T09:18:31;7.70;99.90
9790;DHT22;4934;50.852;8.098;2024-02-21T09:20:57;7.70;99.90
9790;DHT22;4934;50.852;8.098;2024-02-21T09:23:25;7.80;99.90
9790;DHT22;4934;50.852;8.098;2024-02-21T09:25:51;7.70;99.90
9790;DHT22;4934;50.852;8.098;2024-02-21T09:28:17;7.70;99.90
9790;DHT22;4934;50.852;8.098;2024-02-21T09:30:42;7.80;99.90
9790;DHT22;4934;50.852;8.098;2024-02-21T09:33:08;7.80;99.90
9790;DHT22;4934;50.852;8.098;2024-02-21T09:35:37;7.90;99.90
9790;DHT22;4934;50.852;8.098;2024-02-21T09:38:02;7.90;99.90
9790;DHT22;4934;50.852;8.098;2024-02-21T09:40:28;8.00;99.90
9790;DHT22;4934;50.852;8.098;2024-02-21T09:43:04;8.00;99.90
9790;DHT22;4934;50.852;8.098;2024-02-21T09:45:33;8.00;99.90
9790;DHT22;4934;50.852;8.098;2024-02-21T09:48:11;8.00;99.90
9790;DHT22;4934;50.852;8.098;2024-02-21T09:50:40;8.10;99.90
9790;DHT22;4934;50.852;8.098;2024-02-21T09:53:09;8.20;99.90
9790;DHT22;4934;50.852;8.098;2024-02-21T09:55:37;8.20;99.90
9790;DHT22;4934;50.852;8.098;2024-02-21T09:58:05;8.30;99.90
9790;DHT22;4934;50.852;8.098;2024-02-21T10:00:31;8.40;99.90
9790;DHT22;4934;50.852;8.098;2024-02-21T10:02:58;8.40;41.50
9790;DHT22;4934;50.852;8.098;2024-02-21T10:05:23;8.50;32.00
9790;DHT22;4934;50.852;8.098;2024-02-21T10:07:51;8.70;1.00
9790;DHT22;4934;50.852;8.098;2024-02-21T10:10:17;8.80;12.40
9790;DHT22;4934;50.852;8.098;2024-02-21T10:12:51;9.00;1.00
9790;DHT22;4934;50.852;8.098;2024-02-21T10:15:20;9.10;1.00
9790;DHT22;4934;50.852;8.098;2024-02-21T10:17:47;9.20;1.00
9790;DHT22;4934;50.852;8.098;2024-02-21T10:20:13;9.30;1.00
9790;DHT22;4934;50.852;8.098;2024-02-21T10:22:40;9.50;1.00
9790;DHT22;4934;50.852;8.098;2024-02-21T10:25:12;9.50;1.00
9790;DHT22;4934;50.852;8.098;2024-02-21T10:27:39;9.60;1.00
9790;DHT22;4934;50.852;8.098;2024-02-21T10:30:12;9.50;1.00
9790;DHT22;4934;50.852;8.098;2024-02-21T10:32:58;9.60;1.00
9790;DHT22;4934;50.852;8.098;2024-02-21T10:35:32;9.60;99.90
9790;DHT22;4934;50.852;8.098;2024-02-21T10:38:01;9.70;99.90
9790;DHT22;4934;50.852;8.098;2024-02-21T10:40:28;9.90;99.90
9790;DHT22;4934;50.852;8.098;2024-02-21T10:42:59;10.00;99.90
9790;DHT22;4934;50.852;8.098;2024-02-21T10:45:35;10.00;99.90
9790;DHT22;4934;50.852;8.098;2024-02-21T10:48:11;10.10;99.90
9790;DHT22;4934;50.852;8.098;2024-02-21T10:51:03;10.20;99.90
9790;DHT22;4934;50.852;8.098;2024-02-21T10:56:33;10.20;99.90
9790;DHT22;4934;50.852;8.098;2024-02-21T10:59:03;10.20;99.90
9790;DHT22;4934;50.852;8.098;2024-02-21T11:01:29;10.20;99.90
9790;DHT22;4934;50.852;8.098;2024-02-21T11:03:59;10.30;99.90
9790;DHT22;4934;50.852;8.098;2024-02-21T11:06:26;10.30;99.90
9790;DHT22;4934;50.852;8.098;2024-02-21T11:09:31;10.40;99.90
9790;DHT22;4934;50.852;8.098;2024-02-21T11:12:05;10.60;99.90
9790;DHT22;4934;50.852;8.098;2024-02-21T11:14:31;10.70;99.90
9790;DHT22;4934;50.852;8.098;2024-02-21T11:16:58;10.80;99.90
9790;DHT22;4934;50.852;8.098;2024-02-21T11:19:28;10.80;99.90
9790;DHT22;4934;50.852;8.098;2024-02-21T11:21:55;10.90;99.90
9790;DHT22;4934;50.852;8.098;2024-02-21T11:24:26;10.90;99.90
9790;DHT22;4934;50.852;8.098;2024-02-21T11:26:53;11.00;99.90
9790;DHT22;4934;50.852;8.098;2024-02-21T11:29:25;11.00;99.90
9790;DHT22;4934;50.852;8.098;2024-02-21T11:31:51;10.80;99.90
9790;DHT22;4934;50.852;8.098;2024-02-21T11:34:18;10.80;99.90
9790;DHT22;4934;50.852;8.098;2024-02-21T11:36:51;10.80;95.20
9790;DHT22;4934;50.852;8.098;2024-02-21T11:39:26;11.00;99.90
9790;DHT22;4934;50.852;8.098;2024-02-21T11:42:06;11.10;99.90
9790;DHT22;4934;50.852;8.098;2024-02-21T11:44:37;11.20;99.90
9790;DHT22;4934;50.852;8.098;2024-02-21T11:47:08;11.30;99.90
9790;DHT22;4934;50.852;8.098;2024-02-21T11:49:46;11.30;99.90
9790;DHT22;4934;50.852;8.098;2024-02-21T11:52:12;11.20;99.90
9790;DHT22;4934;50.852;8.098;2024-02-21T11:54:41;11.10;99.90
9790;DHT22;4934;50.852;8.098;2024-02-21T11:57:06;11.20;97.60
9790;DHT22;4934;50.852;8.098;2024-02-21T11:59:33;11.20;93.20
9790;DHT22;4934;50.852;8.098;2024-02-21T12:02:00;11.10;92.30
9790;DHT22;4934;50.852;8.098;2024-02-21T12:04:25;11.10;92.30
9790;DHT22;4934;50.852;8.098;2024-02-21T12:06:53;11.20;99.90
9790;DHT22;4934;50.852;8.098;2024-02-21T12:09:20;11.20;99.90
9790;DHT22;4934;50.852;8.098;2024-02-21T12:11:45;11.20;99.90
9790;DHT22;4934;50.852;8.098;2024-02-21T12:14:16;11.20;99.90
9790;DHT22;4934;50.852;8.098;2024-02-21T12:16:42;11.30;99.90
9790;DHT22;4934;50.852;8.098;2024-02-21T12:19:10;11.30;99.90
9790;DHT22;4934;50.852;8.098;2024-02-21T12:21:35;11.40;99.90
9790;DHT22;4934;50.852;8.098;2024-02-21T12:24:27;11.50;99.90
9790;DHT22;4934;50.852;8.098;2024-02-21T12:26:53;11.60;99.90
9790;DHT22;4934;50.852;8.098;2024-02-21T12:29:23;11.50;99.90
9790;DHT22;4934;50.852;8.098;2024-02-21T12:31:56;11.60;99.90
9790;DHT22;4934;50.852;8.098;2024-02-21T12:34:23;11.50;93.30
9790;DHT22;4934;50.852;8.098;2024-02-21T12:36:52;11.50;97.00
9790;DHT22;4934;50.852;8.098;2024-02-21T12:39:18;11.40;95.20
9790;DHT22;4934;50.852;8.098;2024-02-21T12:41:44;11.20;58.80
9790;DHT22;4934;50.852;8.098;2024-02-21T12:44:10;11.20;73.40
9790;DHT22;4934;50.852;8.098;2024-02-21T12:46:39;11.30;63.30
9790;DHT22;4934;50.852;8.098;2024-02-21T12:49:07;11.40;59.90
9790;DHT22;4934;50.852;8.098;2024-02-21T12:51:34;11.50;61.10
9790;DHT22;4934;50.852;8.098;2024-02-21T12:54:00;11.50;54.40
9790;DHT22;4934;50.852;8.098;2024-02-21T12:56:26;11.50;42.80
9790;DHT22;4934;50.852;8.098;2024-02-21T12:58:58;11.40;64.70
9790;DHT22;4934;50.852;8.098;2024-02-21T13:01:23;11.40;42.20
9790;DHT22;4934;50.852;8.098;2024-02-21T13:03:49;11.30;16.20
9790;DHT22;4934;50.852;8.098;2024-02-21T13:06:14;11.30;28.60
9790;DHT22;4934;50.852;8.098;2024-02-21T13:08:40;11.20;22.70
9790;DHT22;4934;50.852;8.098;2024-02-21T13:11:06;11.30;23.50
9790;DHT22;4934;50.852;8.098;2024-02-21T13:13:32;11.20;8.20
9790;DHT22;4934;50.852;8.098;2024-02-21T13:15:58;11.20;35.10
9790;DHT22;4934;50.852;8.098;2024-02-21T13:18:24;11.20;10.50
9790;DHT22;4934;50.852;8.098;2024-02-21T13:20:50;11.30;12.80
9790;DHT22;4934;50.852;8.098;2024-02-21T13:23:15;11.30;10.40
9790;DHT22;4934;50.852;8.098;2024-02-21T13:25:43;11.30;19.70
9790;DHT22;4934;50.852;8.098;2024-02-21T13:28:12;11.20;9.90
9790;DHT22;4934;50.852;8.098;2024-02-21T13:30:38;11.20;7.10
9790;DHT22;4934;50.852;8.098;2024-02-21T13:33:06;11.30;11.90
9790;DHT22;4934;50.852;8.098;2024-02-21T13:35:32;11.40;7.90
9790;DHT22;4934;50.852;8.098;2024-02-21T13:37:58;11.40;7.20
9790;DHT22;4934;50.852;8.098;2024-02-21T13:40:23;11.50;13.50
9790;DHT22;4934;50.852;8.098;2024-02-21T13:42:50;11.60;18.50
9790;DHT22;4934;50.852;8.098;2024-02-21T13:45:16;11.60;1.00
9790;DHT22;4934;50.852;8.098;2024-02-21T13:47:43;11.70;1.00
9790;DHT22;4934;50.852;8.098;2024-02-21T13:50:08;11.70;1.00
9790;DHT22;4934;50.852;8.098;2024-02-21T13:52:37;11.70;1.00
9790;DHT22;4934;50.852;8.098;2024-02-21T13:55:03;11.70;1.00
9790;DHT22;4934;50.852;8.098;2024-02-21T13:57:29;11.70;1.00
9790;DHT22;4934;50.852;8.098;2024-02-21T13:59:54;11.70;1.00
9790;DHT22;4934;50.852;8.098;2024-02-21T14:02:20;11.60;1.00
9790;DHT22;4934;50.852;8.098;2024-02-21T14:04:46;11.50;1.00
9790;DHT22;4934;50.852;8.098;2024-02-21T14:07:12;11.60;1.00
9790;DHT22;4934;50.852;8.098;2024-02-21T14:09:38;11.70;1.00
9790;DHT22;4934;50.852;8.098;2024-02-21T14:12:03;11.70;1.00
9790;DHT22;4934;50.852;8.098;2024-02-21T14:14:34;11.60;1.00
9790;DHT22;4934;50.852;8.098;2024-02-21T14:17:00;11.60;1.00
9790;DHT22;4934;50.852;8.098;2024-02-21T14:19:25;11.60;1.00
9790;DHT22;4934;50.852;8.098;2024-02-21T14:21:52;11.50;1.00
9790;DHT22;4934;50.852;8.098;2024-02-21T14:24:18;11.40;1.00
9790;DHT22;4934;50.852;8.098;2024-02-21T14:26:45;11.30;1.00
9790;DHT22;4934;50.852;8.098;2024-02-21T14:29:10;11.20;1.00
9790;DHT22;4934;50.852;8.098;2024-02-21T14:31:36;11.10;1.00
9790;DHT22;4934;50.852;8.098;2024-02-21T14:34:02;11.00;1.00
9790;DHT22;4934;50.852;8.098;2024-02-21T14:36:28;11.00;1.00
9790;DHT22;4934;50.852;8.098;2024-02-21T14:38:53;10.90;1.00
9790;DHT22;4934;50.852;8.098;2024-02-21T14:41:19;11.00;1.00
9790;DHT22;4934;50.852;8.098;2024-02-21T14:43:45;11.00;1.00
9790;DHT22;4934;50.852;8.098;2024-02-21T14:46:12;10.90;1.00
9790;DHT22;4934;50.852;8.098;2024-02-21T14:48:38;11.00;1.00
9790;DHT22;4934;50.852;8.098;2024-02-21T14:51:03;10.80;1.00
9790;DHT22;4934;50.852;8.098;2024-02-21T14:53:30;10.80;1.00
9790;DHT22;4934;50.852;8.098;2024-02-21T14:55:56;10.80;1.00
9790;DHT22;4934;50.852;8.098;2024-02-21T14:58:23;10.80;1.00
9790;DHT22;4934;50.852;8.098;2024-02-21T15:00:49;10.70;1.00
9790;DHT22;4934;50.852;8.098;2024-02-21T15:03:17;10.60;1.00
9790;DHT22;4934;50.852;8.098;2024-02-21T15:05:46;10.50;1.00
9790;DHT22;4934;50.852;8.098;2024-02-21T15:08:11;10.50;1.00
9790;DHT22;4934;50.852;8.098;2024-02-21T15:10:38;10.50;1.00
9790;DHT22;4934;50.852;8.098;2024-02-21T15:13:03;10.50;1.00
9790;DHT22;4934;50.852;8.098;2024-02-21T15:15:31;10.50;1.00
9790;DHT22;4934;50.852;8.098;2024-02-21T15:17:57;10.50;1.00
9790;DHT22;4934;50.852;8.098;2024-02-21T15:20:23;10.40;1.00
9790;DHT22;4934;50.852;8.098;2024-02-21T15:22:52;10.30;1.00
9790;DHT22;4934;50.852;8.098;2024-02-21T15:25:18;10.30;1.00
9790;DHT22;4934;50.852;8.098;2024-02-21T15:27:44;10.30;1.00
9790;DHT22;4934;50.852;8.098;2024-02-21T15:30:13;10.40;1.00
9790;DHT22;4934;50.852;8.098;2024-02-21T15:32:40;10.40;1.00
9790;DHT22;4934;50.852;8.098;2024-02-21T15:35:08;10.40;1.00
9790;DHT22;4934;50.852;8.098;2024-02-21T15:37:34;10.30;1.00
9790;DHT22;4934;50.852;8.098;2024-02-21T15:40:01;10.20;1.00
9790;DHT22;4934;50.852;8.098;2024-02-21T15:42:26;10.10;1.00
9790;DHT22;4934;50.852;8.098;2024-02-21T15:44:52;10.20;1.00
9790;DHT22;4934;50.852;8.098;2024-02-21T15:47:18;10.20;1.00
9790;DHT22;4934;50.852;8.098;2024-02-21T15:49:49;10.30;1.00
9790;DHT22;4934;50.852;8.098;2024-02-21T15:52:14;10.40;1.00
9790;DHT22;4934;50.852;8.098;2024-02-21T15:54:40;10.30;1.00
9790;DHT22;4934;50.852;8.098;2024-02-21T15:57:05;10.20;1.00
9790;DHT22;4934;50.852;8.098;2024-02-21T15:59:33;10.00;1.00
9790;DHT22;4934;50.852;8.098;2024-02-21T16:01:58;9.90;1.00
9790;DHT22;4934;50.852;8.098;2024-02-21T16:04:28;9.90;1.00
9790;DHT22;4934;50.852;8.098;2024-02-21T16:07:00;9.90;1.00
9790;DHT22;4934;50.852;8.098;2024-02-21T16:09:27;9.80;1.00
9790;DHT22;4934;50.852;8.098;2024-02-21T16:11:56;9.70;1.00
9790;DHT22;4934;50.852;8.098;2024-02-21T16:14:22;9.70;1.00
9790;DHT22;4934;50.852;8.098;2024-02-21T16:16:48;9.70;1.00
9790;DHT22;4934;50.852;8.098;2024-02-21T16:19:15;9.70;1.00
9790;DHT22;4934;50.852;8.098;2024-02-21T16:21:40;9.60;1.00
9790;DHT22;4934;50.852;8.098;2024-02-21T16:24:08;9.60;1.00